Time;durP1;ratioP1;P1;durP2;ratioP2;P2;SDS_P1;SDS_P2;PMS_P1;PMS_P2;Temp;Humidity;BMP_temperature;BMP_pressure;BME280_temperature;BME280_humidity;BME280_pressure;Samples;Min_cycle;Max_cycle;Signal;HPM_P1;HPM_P2
2023/09/07 00:01:44;;;;;;;35.00;32.87;;;19.10;81.40;;;;;;5036313;28;20049;-65
2023/09/07 00:04:10;;;;;;;35.57;33.60;;;19.10;81.50;;;;;;5036414;28;20045;-65
2023/09/07 00:06:36;;;;;;;24.33;22.93;;;19.10;81.70;;;;;;5036501;28;20042;-65
2023/09/07 00:09:03;;;;;;;38.03;36.03;;;19.10;81.60;;;;;;5019728;28;20283;-65
2023/09/07 00:11:29;;;;;;;26.43;24.77;;;19.10;81.70;;;;;;5022731;28;20048;-65
2023/09/07 00:13:54;;;;;;;29.23;27.43;;;19.00;81.80;;;;;;5044838;28;20699;-65
2023/09/07 00:16:20;;;;;;;40.83;38.47;;;19.00;81.80;;;;;;5033796;28;20309;-65
2023/09/07 00:18:46;;;;;;;28.67;27.07;;;19.00;81.90;;;;;;5041291;28;20047;-65
2023/09/07 00:21:11;;;;;;;33.40;31.40;;;19.00;81.90;;;;;;5035908;28;20476;-65
2023/09/07 00:23:37;;;;;;;41.03;38.77;;;19.00;82.00;;;;;;5036041;28;20043;-65
2023/09/07 00:26:03;;;;;;;30.03;28.23;;;18.90;82.20;;;;;;5031129;28;20468;-65
2023/09/07 00:28:29;;;;;;;31.73;29.73;;;18.90;82.30;;;;;;5032709;28;20073;-65
2023/09/07 00:30:54;;;;;;;30.17;28.37;;;18.90;82.20;;;;;;5034362;28;20445;-65
2023/09/07 00:33:20;;;;;;;31.47;29.40;;;18.80;82.20;;;;;;5031638;28;20041;-65
2023/09/07 00:35:46;;;;;;;34.83;32.93;;;18.80;82.20;;;;;;5035832;28;20037;-65
2023/09/07 00:38:12;;;;;;;44.60;42.07;;;18.80;82.40;;;;;;5036495;28;20045;-65
2023/09/07 00:40:37;;;;;;;28.23;26.53;;;18.70;82.60;;;;;;5021821;28;20049;-65
2023/09/07 00:43:04;;;;;;;26.10;24.37;;;18.80;82.60;;;;;;5041060;28;20044;-65
2023/09/07 00:45:30;;;;;;;39.70;37.40;;;18.70;82.60;;;;;;5031497;28;20057;-65
2023/09/07 00:47:56;;;;;;;31.57;29.63;;;18.70;82.50;;;;;;5017760;28;20283;-65
2023/09/07 00:50:22;;;;;;;29.90;27.97;;;18.70;82.60;;;;;;5032282;28;20338;-65
2023/09/07 00:52:48;;;;;;;26.93;25.33;;;18.70;82.60;;;;;;5015482;28;20101;-65
2023/09/07 00:55:14;;;;;;;35.57;33.50;;;18.60;82.70;;;;;;5031968;28;20056;-65
2023/09/07 00:57:42;;;;;;;25.50;23.77;;;18.60;82.80;;;;;;5032543;28;20068;-65
2023/09/07 01:00:09;;;;;;;26.20;24.73;;;18.60;82.80;;;;;;5034041;28;20052;-65
2023/09/07 01:02:35;;;;;;;36.97;34.77;;;18.60;82.90;;;;;;5042375;28;20284;-65
2023/09/07 01:05:04;;;;;;;28.13;26.43;;;18.50;83.30;;;;;;5015594;28;20331;-65
2023/09/07 01:07:32;;;;;;;33.43;31.30;;;18.50;83.20;;;;;;5062046;28;20299;-65
2023/09/07 01:10:01;;;;;;;40.10;37.70;;;18.50;83.30;;;;;;5041154;28;20287;-65
2023/09/07 01:12:27;;;;;;;31.97;30.23;;;18.50;83.30;;;;;;5017783;28;20371;-65
2023/09/07 01:14:53;;;;;;;33.10;31.20;;;18.40;83.40;;;;;;5040643;28;20378;-65
2023/09/07 01:17:21;;;;;;;30.50;28.80;;;18.40;83.50;;;;;;5036404;28;20402;-65
2023/09/07 01:19:49;;;;;;;24.67;23.27;;;18.40;83.50;;;;;;5035125;28;20280;-65
2023/09/07 01:22:22;;;;;;;47.30;44.70;;;18.40;83.70;;;;;;5016951;28;20300;-65
2023/09/07 01:24:50;;;;;;;39.13;36.87;;;18.30;83.70;;;;;;5067703;28;20715;-65
2023/09/07 01:27:16;;;;;;;38.63;36.43;;;18.30;83.80;;;;;;5030562;28;20715;-65
2023/09/07 01:29:42;;;;;;;36.13;34.03;;;18.30;84.00;;;;;;5030191;28;20284;-65
2023/09/07 01:32:09;;;;;;;30.27;28.37;;;18.30;83.90;;;;;;5040935;28;20636;-65
2023/09/07 01:34:36;;;;;;;32.67;30.90;;;18.30;83.80;;;;;;5018748;28;20136;-65
2023/09/07 01:37:01;;;;;;;42.33;39.77;;;18.30;83.80;;;;;;5032344;28;20756;-65
2023/09/07 01:39:27;;;;;;;35.13;33.07;;;18.30;83.70;;;;;;5073250;28;20311;-65
2023/09/07 01:41:53;;;;;;;44.63;42.13;;;18.20;83.90;;;;;;5042476;28;20569;-65
2023/09/07 01:44:19;;;;;;;32.03;30.30;;;18.20;84.00;;;;;;5041897;28;20043;-65
2023/09/07 01:46:44;;;;;;;40.73;38.37;;;18.20;84.00;;;;;;5034881;28;20033;-65
2023/09/07 01:49:10;;;;;;;40.57;38.13;;;18.20;84.10;;;;;;5032515;28;20045;-65
2023/09/07 01:51:36;;;;;;;32.57;30.67;;;18.20;84.10;;;;;;5036352;28;20037;-65
2023/09/07 01:54:02;;;;;;;28.33;26.57;;;18.30;84.00;;;;;;5039181;28;20553;-65
2023/09/07 01:56:28;;;;;;;31.10;29.40;;;18.20;83.80;;;;;;5035357;28;20290;-65
2023/09/07 01:58:53;;;;;;;32.87;31.03;;;18.20;83.80;;;;;;5038533;28;20056;-65
2023/09/07 02:01:29;;;;;;;36.03;33.93;;;18.20;83.80;;;;;;5027834;28;20508;-65
2023/09/07 02:03:56;;;;;;;36.37;34.33;;;18.10;84.00;;;;;;5031429;28;20042;-65
2023/09/07 02:06:21;;;;;;;33.40;31.47;;;18.10;83.90;;;;;;5031864;28;20346;-65
2023/09/07 02:08:48;;;;;;;36.93;34.77;;;18.10;83.90;;;;;;5017931;28;21094;-65
2023/09/07 02:11:14;;;;;;;26.37;24.93;;;18.10;83.90;;;;;;5036522;28;20405;-65
2023/09/07 02:13:43;;;;;;;31.00;29.30;;;18.10;83.70;;;;;;5040686;28;20284;-65
2023/09/07 02:16:09;;;;;;;37.70;35.63;;;18.10;83.70;;;;;;5070952;28;20048;-65
2023/09/07 02:18:37;;;;;;;38.77;36.63;;;18.10;83.80;;;;;;5043518;28;20294;-65
2023/09/07 02:21:03;;;;;;;24.80;23.20;;;18.00;83.90;;;;;;5043950;28;20111;-65
2023/09/07 02:23:33;;;;;;;21.87;20.43;;;18.00;84.00;;;;;;5046345;28;20292;-65
2023/09/07 02:25:59;;;;;;;21.57;20.23;;;18.00;84.00;;;;;;5012005;28;20311;-66
2023/09/07 02:28:26;;;;;;;44.27;41.53;;;17.90;83.90;;;;;;5028945;28;20284;-66
2023/09/07 02:30:52;;;;;;;35.77;33.67;;;17.90;84.10;;;;;;5014891;28;20841;-66
2023/09/07 02:33:18;;;;;;;29.10;27.17;;;17.90;84.40;;;;;;5029213;28;20390;-66
2023/09/07 02:35:44;;;;;;;31.97;29.87;;;17.90;84.50;;;;;;5038113;28;20780;-66
2023/09/07 02:38:10;;;;;;;35.93;33.50;;;17.80;84.60;;;;;;5030156;28;20092;-66
2023/09/07 02:40:43;;;;;;;28.50;26.73;;;17.80;84.70;;;;;;5023212;28;20344;-66
2023/09/07 02:43:09;;;;;;;17.97;16.97;;;17.80;84.90;;;;;;5042538;28;20129;-66
2023/09/07 02:45:35;;;;;;;26.37;24.60;;;17.80;84.90;;;;;;5031565;28;20304;-66
2023/09/07 02:48:01;;;;;;;25.90;24.40;;;17.80;85.00;;;;;;5035762;28;21236;-66
2023/09/07 02:50:32;;;;;;;33.73;31.73;;;17.70;85.00;;;;;;5032482;28;20136;-66
2023/09/07 02:52:57;;;;;;;37.33;35.27;;;17.70;85.10;;;;;;5034749;28;20041;-65
2023/09/07 02:55:23;;;;;;;35.60;33.53;;;17.60;85.10;;;;;;5015832;28;20653;-66
2023/09/07 02:57:49;;;;;;;18.13;16.93;;;17.60;85.10;;;;;;5034266;28;20485;-66
2023/09/07 03:00:17;;;;;;;28.37;26.67;;;17.60;85.30;;;;;;5020632;28;20087;-66
2023/09/07 03:02:43;;;;;;;27.30;25.50;;;17.50;85.40;;;;;;5034337;28;20053;-66
2023/09/07 03:05:09;;;;;;;38.33;36.20;;;17.50;85.40;;;;;;5032229;28;20803;-66
2023/09/07 03:07:35;;;;;;;41.37;38.93;;;17.50;85.50;;;;;;5034174;28;20294;-66
2023/09/07 03:10:01;;;;;;;35.90;33.70;;;17.40;85.70;;;;;;5032757;28;20033;-66
2023/09/07 03:12:27;;;;;;;27.33;25.63;;;17.40;85.80;;;;;;5077917;28;20512;-66
2023/09/07 03:14:53;;;;;;;33.77;31.80;;;17.40;85.70;;;;;;5039648;28;20720;-66
2023/09/07 03:17:20;;;;;;;41.37;38.73;;;17.40;85.90;;;;;;5037038;28;20790;-66
2023/09/07 03:19:47;;;;;;;28.17;26.37;;;17.30;86.00;;;;;;5047928;28;20053;-66
2023/09/07 03:22:13;;;;;;;39.90;37.60;;;17.30;86.10;;;;;;5047099;28;20283;-66
2023/09/07 03:24:40;;;;;;;27.33;25.63;;;17.30;86.20;;;;;;5015267;28;20292;-66
2023/09/07 03:27:06;;;;;;;40.23;37.97;;;17.30;86.20;;;;;;5033417;28;20655;-66
2023/09/07 03:29:33;;;;;;;28.60;26.80;;;17.20;86.00;;;;;;5032050;28;20377;-66
2023/09/07 03:32:00;;;;;;;29.87;28.13;;;17.20;86.20;;;;;;5035891;28;20360;-66
2023/09/07 03:34:26;;;;;;;29.00;27.23;;;17.10;86.20;;;;;;5032838;28;20636;-66
2023/09/07 03:36:51;;;;;;;43.90;41.23;;;17.10;86.40;;;;;;5030630;28;20287;-66
2023/09/07 03:39:18;;;;;;;24.83;23.40;;;17.10;86.40;;;;;;5035900;28;20472;-66
2023/09/07 03:41:44;;;;;;;38.77;36.33;;;17.10;86.40;;;;;;5040949;28;20053;-66
2023/09/07 03:44:10;;;;;;;32.10;30.03;;;17.10;86.50;;;;;;5019087;28;20296;-66
2023/09/07 03:46:36;;;;;;;26.27;24.33;;;17.10;86.30;;;;;;5034595;28;20351;-66
2023/09/07 03:49:02;;;;;;;29.53;27.57;;;17.00;86.50;;;;;;5036716;28;20132;-66
2023/09/07 03:51:28;;;;;;;21.30;20.00;;;17.00;86.40;;;;;;5048319;28;20041;-66
2023/09/07 03:53:54;;;;;;;36.30;34.37;;;17.00;86.50;;;;;;5032971;28;20042;-66
2023/09/07 03:56:19;;;;;;;28.90;26.97;;;16.90;86.70;;;;;;5035947;28;20114;-66
2023/09/07 03:58:47;;;;;;;25.63;24.07;;;16.90;86.90;;;;;;5032223;28;20398;-66
2023/09/07 04:01:13;;;;;;;19.80;18.37;;;16.90;86.90;;;;;;5036107;28;20048;-66
2023/09/07 04:03:40;;;;;;;27.40;25.73;;;16.80;87.10;;;;;;5041245;28;20620;-66
2023/09/07 04:06:06;;;;;;;20.80;19.33;;;16.80;87.00;;;;;;5036145;28;20303;-66
2023/09/07 04:08:32;;;;;;;26.73;25.17;;;16.80;87.20;;;;;;5032684;28;20303;-66
2023/09/07 04:10:58;;;;;;;28.13;26.33;;;16.70;87.40;;;;;;5036807;28;20041;-66
2023/09/07 04:13:23;;;;;;;29.00;27.00;;;16.70;87.40;;;;;;5038585;28;20279;-66
2023/09/07 04:15:49;;;;;;;18.37;17.10;;;16.70;87.60;;;;;;5047011;28;20045;-66
2023/09/07 04:18:16;;;;;;;36.80;34.47;;;16.70;87.70;;;;;;5018977;28;20127;-66
2023/09/07 04:20:42;;;;;;;36.70;34.30;;;16.70;87.80;;;;;;5019844;28;20059;-66
2023/09/07 04:23:08;;;;;;;22.07;20.63;;;16.70;88.00;;;;;;5030927;28;20363;-66
2023/09/07 04:25:34;;;;;;;26.93;25.30;;;16.70;88.00;;;;;;5031668;28;20310;-66
2023/09/07 04:28:00;;;;;;;27.60;25.83;;;16.70;88.00;;;;;;5029978;28;20385;-66
2023/09/07 04:30:26;;;;;;;27.23;25.63;;;16.70;87.90;;;;;;5032534;28;20083;-66
2023/09/07 04:32:52;;;;;;;34.37;32.13;;;16.70;88.00;;;;;;5032589;28;20077;-66
2023/09/07 04:35:18;;;;;;;26.77;25.07;;;16.70;88.10;;;;;;5032218;28;20315;-66
2023/09/07 04:37:44;;;;;;;22.30;20.87;;;16.60;88.10;;;;;;5046988;28;20055;-66
2023/09/07 04:40:10;;;;;;;35.03;32.83;;;16.60;88.10;;;;;;5040559;28;20395;-66
2023/09/07 04:42:36;;;;;;;37.03;34.67;;;16.60;88.30;;;;;;5072788;28;20287;-66
2023/09/07 04:45:03;;;;;;;22.60;20.90;;;16.60;88.60;;;;;;5052646;28;20045;-66
2023/09/07 04:47:28;;;;;;;43.63;41.03;;;16.60;88.70;;;;;;5032875;28;20327;-65
2023/09/07 04:49:54;;;;;;;37.97;35.53;;;16.50;88.70;;;;;;5046140;28;20384;-65
2023/09/07 04:52:20;;;;;;;21.20;19.70;;;16.50;88.80;;;;;;5042081;28;20033;-65
2023/09/07 04:54:45;;;;;;;24.70;23.07;;;16.50;89.00;;;;;;5035213;28;20540;-65
2023/09/07 04:57:12;;;;;;;21.73;20.27;;;16.50;89.00;;;;;;5030024;28;20044;-65
2023/09/07 04:59:37;;;;;;;21.03;19.37;;;16.40;89.00;;;;;;5034571;28;20041;-65
2023/09/07 05:02:03;;;;;;;20.77;19.37;;;16.40;89.00;;;;;;5031075;28;20639;-65
2023/09/07 05:04:30;;;;;;;18.93;17.63;;;16.40;89.20;;;;;;5018220;28;20451;-65
2023/09/07 05:06:57;;;;;;;22.33;20.73;;;16.40;89.40;;;;;;5039845;28;20045;-65
2023/09/07 05:09:23;;;;;;;18.47;17.07;;;16.40;89.20;;;;;;5035210;28;20294;-65
2023/09/07 05:11:49;;;;;;;20.93;19.53;;;16.40;89.40;;;;;;5032001;28;20626;-65
2023/09/07 05:14:15;;;;;;;17.00;15.70;;;16.40;89.10;;;;;;5028262;28;20283;-65
2023/09/07 05:16:43;;;;;;;17.97;16.73;;;16.40;89.10;;;;;;5042392;28;20056;-65
2023/09/07 05:19:09;;;;;;;23.33;21.60;;;16.40;89.00;;;;;;5019733;28;20041;-65
2023/09/07 05:21:35;;;;;;;19.00;17.67;;;16.40;89.10;;;;;;5038746;28;20288;-65
2023/09/07 05:24:01;;;;;;;20.50;19.00;;;16.40;89.10;;;;;;5035226;28;20463;-65
2023/09/07 05:26:26;;;;;;;19.73;18.27;;;16.40;89.00;;;;;;5028498;28;20041;-65
2023/09/07 05:28:52;;;;;;;18.57;17.13;;;16.50;88.90;;;;;;5039754;28;20458;-65
2023/09/07 05:31:18;;;;;;;17.10;15.70;;;16.50;89.00;;;;;;5033066;28;20668;-65
2023/09/07 05:33:43;;;;;;;15.30;14.03;;;16.50;88.90;;;;;;5036254;28;20041;-65
2023/09/07 05:36:09;;;;;;;17.80;16.47;;;16.50;89.00;;;;;;5029361;28;20049;-65
2023/09/07 05:38:35;;;;;;;18.33;16.90;;;16.60;89.00;;;;;;5031295;28;20041;-65
2023/09/07 05:41:01;;;;;;;20.17;18.70;;;16.60;89.00;;;;;;5039903;28;20045;-65
2023/09/07 05:43:27;;;;;;;16.13;14.90;;;16.60;89.10;;;;;;5026720;28;20069;-65
2023/09/07 05:45:52;;;;;;;18.57;17.00;;;16.70;89.10;;;;;;5030222;28;20034;-65
2023/09/07 05:48:18;;;;;;;16.73;15.33;;;16.70;88.90;;;;;;5035130;28;20053;-65
2023/09/07 05:50:45;;;;;;;19.03;17.57;;;16.80;88.80;;;;;;5014199;28;20041;-65
2023/09/07 05:53:10;;;;;;;20.13;18.63;;;16.80;88.80;;;;;;5016558;28;20045;-65
2023/09/07 05:55:36;;;;;;;20.83;19.07;;;16.90;88.70;;;;;;5071212;28;20279;-67
2023/09/07 05:58:06;;;;;;;21.27;19.77;;;16.90;88.80;;;;;;5039356;28;20182;-67
2023/09/07 06:00:32;;;;;;;18.63;17.20;;;17.00;88.70;;;;;;5023141;28;20180;-67
2023/09/07 06:02:58;;;;;;;23.10;21.47;;;17.00;88.50;;;;;;5044052;28;20615;-66
2023/09/07 06:05:23;;;;;;;20.43;18.93;;;17.10;88.50;;;;;;5030518;28;20304;-66
2023/09/07 06:07:49;;;;;;;19.67;18.33;;;17.10;88.70;;;;;;5043029;28;20568;-67
2023/09/07 06:10:15;;;;;;;31.83;29.47;;;17.20;88.50;;;;;;5031225;28;20069;-67
2023/09/07 06:12:41;;;;;;;23.70;21.83;;;17.30;88.50;;;;;;5018715;28;20037;-66
2023/09/07 06:15:07;;;;;;;22.87;21.07;;;17.40;88.30;;;;;;5039334;28;20084;-67
2023/09/07 06:17:33;;;;;;;25.53;23.73;;;17.40;88.10;;;;;;5049340;28;20349;-67
2023/09/07 06:19:59;;;;;;;22.27;20.67;;;17.50;88.00;;;;;;5047382;28;20291;-67
2023/09/07 06:22:24;;;;;;;20.43;18.97;;;17.60;87.90;;;;;;5057716;28;20056;-67
2023/09/07 06:24:50;;;;;;;29.60;27.27;;;17.70;87.60;;;;;;5048229;28;20094;-67
2023/09/07 06:27:16;;;;;;;25.00;23.17;;;17.70;87.40;;;;;;5036747;28;20041;-67
2023/09/07 06:29:41;;;;;;;27.93;26.17;;;17.80;87.10;;;;;;5025068;28;20041;-67
2023/09/07 06:32:07;;;;;;;18.40;16.93;;;17.90;86.70;;;;;;5020752;28;20037;-67
2023/09/07 06:34:33;;;;;;;31.87;29.57;;;18.00;86.60;;;;;;5049924;28;20382;-67
2023/09/07 06:36:58;;;;;;;26.10;24.20;;;18.10;86.30;;;;;;5039130;28;20076;-67
2023/09/07 06:39:24;;;;;;;20.00;18.57;;;18.20;86.10;;;;;;5047897;28;20047;-67
2023/09/07 06:41:50;;;;;;;19.70;18.23;;;18.20;85.80;;;;;;5033044;28;20044;-67
2023/09/07 06:44:16;;;;;;;25.70;24.03;;;18.30;85.80;;;;;;5046618;28;20080;-66
2023/09/07 06:46:42;;;;;;;27.20;25.53;;;18.40;85.50;;;;;;5036913;28;20469;-66
2023/09/07 06:49:08;;;;;;;28.70;26.83;;;18.50;85.20;;;;;;5036446;28;20413;-66
2023/09/07 06:51:33;;;;;;;37.50;35.07;;;18.60;84.90;;;;;;5025727;28;20040;-67
2023/09/07 06:53:59;;;;;;;38.03;35.53;;;18.70;84.80;;;;;;5047318;28;20033;-67
2023/09/07 06:56:26;;;;;;;34.67;32.10;;;18.80;84.70;;;;;;5049887;28;20040;-67
2023/09/07 06:58:52;;;;;;;24.33;22.67;;;18.90;84.70;;;;;;5045813;28;20045;-66
2023/09/07 07:01:19;;;;;;;25.00;23.23;;;19.00;84.20;;;;;;5041171;28;20846;-67
2023/09/07 07:03:44;;;;;;;24.13;22.43;;;19.10;84.10;;;;;;5026370;28;20292;-67
2023/09/07 07:06:10;;;;;;;32.43;30.60;;;19.20;83.80;;;;;;5048428;28;20671;-67
2023/09/07 07:08:36;;;;;;;31.33;29.27;;;19.30;83.50;;;;;;5019540;28;20037;-67
2023/09/07 07:11:01;;;;;;;36.73;34.37;;;19.40;82.80;;;;;;5040864;28;20052;-67
2023/09/07 07:13:27;;;;;;;27.03;25.13;;;19.50;82.50;;;;;;5036396;28;20458;-67
2023/09/07 07:15:54;;;;;;;29.70;27.77;;;19.60;82.70;;;;;;5026675;28;20097;-67
2023/09/07 07:18:19;;;;;;;30.33;28.27;;;19.70;82.50;;;;;;5039437;28;20121;-67
2023/09/07 07:20:45;;;;;;;38.97;36.40;;;19.80;82.00;;;;;;5050526;28;20775;-67
2023/09/07 07:23:12;;;;;;;40.27;37.70;;;19.90;81.60;;;;;;5043689;28;20084;-67
2023/09/07 07:25:38;;;;;;;30.20;28.10;;;20.10;81.30;;;;;;5029147;28;20045;-67
2023/09/07 07:28:05;;;;;;;34.67;32.20;;;20.20;80.70;;;;;;5029238;28;20041;-66
2023/09/07 07:30:36;;;;;;;31.83;29.67;;;20.30;80.10;;;;;;5022400;28;20093;-67
2023/09/07 07:33:03;;;;;;;36.50;34.27;;;20.40;80.20;;;;;;5044167;28;20041;-67
2023/09/07 07:35:30;;;;;;;26.87;25.07;;;20.50;79.80;;;;;;5021463;28;20501;-67
2023/09/07 07:37:55;;;;;;;19.53;18.30;;;20.50;79.80;;;;;;5031699;28;20049;-66
2023/09/07 07:40:22;;;;;;;35.47;33.07;;;20.60;79.60;;;;;;5043963;28;20101;-66
2023/09/07 07:42:48;;;;;;;39.67;36.97;;;20.70;79.50;;;;;;5029063;28;20040;-67
2023/09/07 07:45:14;;;;;;;33.13;30.83;;;20.70;79.00;;;;;;5019584;28;20052;-67
2023/09/07 07:47:43;;;;;;;33.80;31.67;;;20.70;78.40;;;;;;5042060;28;20041;-66
2023/09/07 07:50:09;;;;;;;32.40;30.27;;;20.80;78.50;;;;;;5047204;28;20049;-66
2023/09/07 07:52:35;;;;;;;31.23;29.13;;;20.80;78.50;;;;;;5047371;28;20400;-67
2023/09/07 07:55:01;;;;;;;32.80;30.27;;;20.90;77.90;;;;;;5043215;28;20037;-67
2023/09/07 07:57:26;;;;;;;35.90;33.57;;;21.00;78.10;;;;;;5011903;28;20447;-67
2023/09/07 07:59:52;;;;;;;33.37;31.10;;;21.00;77.90;;;;;;5051922;28;20041;-67
2023/09/07 08:02:18;;;;;;;34.13;31.87;;;21.10;77.90;;;;;;5037387;28;20037;-67
2023/09/07 08:04:43;;;;;;;34.53;32.30;;;21.20;77.90;;;;;;5038029;28;20072;-67
2023/09/07 08:07:09;;;;;;;40.60;37.63;;;21.30;77.90;;;;;;5042753;28;20045;-67
2023/09/07 08:09:35;;;;;;;41.27;38.37;;;21.50;77.80;;;;;;5036733;28;20040;-67
2023/09/07 08:12:05;;;;;;;41.93;39.07;;;21.60;77.50;;;;;;5019020;28;20113;-67
2023/09/07 08:14:31;;;;;;;33.43;31.13;;;21.70;77.10;;;;;;5024538;28;20045;-67
2023/09/07 08:16:57;;;;;;;34.13;31.70;;;21.90;76.50;;;;;;5040201;28;20137;-67
2023/09/07 08:19:24;;;;;;;31.73;29.63;;;22.00;76.40;;;;;;5044475;28;20049;-67
2023/09/07 08:21:50;;;;;;;35.07;32.67;;;22.10;75.90;;;;;;5026965;28;20044;-67
2023/09/07 08:24:16;;;;;;;29.03;26.87;;;22.20;74.90;;;;;;5027067;28;20405;-65
2023/09/07 08:26:43;;;;;;;39.63;36.73;;;22.40;74.90;;;;;;5038380;28;20066;-65
2023/09/07 08:29:10;;;;;;;44.97;41.93;;;22.50;74.50;;;;;;5069373;28;20203;-65
2023/09/07 08:31:38;;;;;;;39.17;36.50;;;22.60;73.70;;;;;;5043403;28;20037;-65
2023/09/07 08:34:06;;;;;;;34.73;32.63;;;22.70;73.90;;;;;;5016700;28;20041;-65
2023/09/07 08:36:34;;;;;;;37.23;34.73;;;22.90;73.00;;;;;;5037521;28;20449;-65
2023/09/07 08:39:08;;;;;;;33.83;31.60;;;23.00;72.30;;;;;;5015640;28;20120;-67
2023/09/07 08:41:44;;;;;;;41.28;38.58;;;23.10;72.20;;;;;;5052123;28;20413;-67
2023/09/07 08:44:10;;;;;;;50.17;46.80;;;23.30;72.70;;;;;;5038852;28;20566;-67
2023/09/07 08:46:41;;;;;;;20.77;19.07;;;23.40;70.60;;;;;;5035089;28;20092;-67
2023/09/07 08:49:08;;;;;;;16.07;14.97;;;23.50;70.20;;;;;;5024234;28;20040;-67
2023/09/07 08:51:37;;;;;;;17.40;16.10;;;23.50;70.40;;;;;;5033672;28;20041;-67
2023/09/07 08:54:03;;;;;;;16.80;15.40;;;23.60;69.50;;;;;;5039784;28;20041;-67
2023/09/07 08:56:29;;;;;;;23.57;22.03;;;23.70;68.40;;;;;;5045905;28;20047;-67
2023/09/07 08:58:55;;;;;;;14.67;13.53;;;23.80;68.20;;;;;;5037780;28;20040;-67
2023/09/07 09:01:21;;;;;;;16.63;15.33;;;23.80;67.70;;;;;;5022218;28;20048;-67
2023/09/07 09:03:49;;;;;;;25.30;23.60;;;23.90;68.00;;;;;;5033015;28;20042;-67
2023/09/07 09:06:18;;;;;;;20.33;19.00;;;24.00;67.70;;;;;;5042930;28;20041;-67
2023/09/07 09:08:52;;;;;;;22.53;20.93;;;24.10;68.40;;;;;;5043400;28;20056;-67
2023/09/07 09:11:18;;;;;;;25.42;23.45;;;24.30;67.40;;;;;;5064187;28;20045;-67
2023/09/07 09:13:45;;;;;;;60.90;56.83;;;24.40;67.20;;;;;;5040057;28;20120;-67
2023/09/07 09:16:12;;;;;;;49.53;46.43;;;24.50;66.60;;;;;;5017514;28;20120;-67
2023/09/07 09:18:47;;;;;;;51.13;47.93;;;24.60;66.30;;;;;;5038384;28;20049;-67
2023/09/07 09:21:14;;;;;;;44.42;41.55;;;24.70;65.40;;;;;;5034042;28;20139;-68
2023/09/07 09:23:41;;;;;;;60.40;56.43;;;24.70;64.80;;;;;;5042736;28;20045;-68
2023/09/07 09:26:06;;;;;;;46.47;43.63;;;24.80;65.20;;;;;;5036280;28;20042;-68
2023/09/07 09:28:33;;;;;;;67.87;63.20;;;24.90;65.80;;;;;;5034086;28;20435;-68
2023/09/07 09:31:00;;;;;;;60.57;56.63;;;25.00;63.70;;;;;;5044826;28;20393;-66
2023/09/07 09:33:27;;;;;;;50.03;46.47;;;25.10;64.30;;;;;;5026438;28;20434;-66
2023/09/07 09:35:54;;;;;;;18.50;17.27;;;25.20;63.50;;;;;;5027316;28;20098;-67
2023/09/07 09:38:23;;;;;;;11.07;10.27;;;25.20;62.60;;;;;;5020156;28;20134;-67
2023/09/07 09:40:50;;;;;;;13.03;12.03;;;25.30;62.90;;;;;;5046285;28;20051;-67
2023/09/07 09:43:16;;;;;;;47.37;44.30;;;25.40;62.60;;;;;;5043994;28;20049;-67
2023/09/07 09:45:41;;;;;;;25.20;23.50;;;25.50;62.90;;;;;;5027901;28;20516;-67
2023/09/07 09:48:09;;;;;;;38.07;35.67;;;25.60;63.50;;;;;;5040512;28;20475;-67
2023/09/07 09:50:37;;;;;;;32.43;30.30;;;25.70;62.20;;;;;;5028461;28;20408;-67
2023/09/07 09:53:06;;;;;;;38.20;35.80;;;25.70;61.60;;;;;;5041895;28;20393;-68
2023/09/07 09:55:33;;;;;;;35.93;33.53;;;25.80;62.10;;;;;;5036462;28;20784;-66
2023/09/07 09:57:59;;;;;;;46.27;43.07;;;26.00;62.40;;;;;;5040075;28;20524;-66
2023/09/07 10:00:29;;;;;;;51.63;48.40;;;26.10;61.90;;;;;;5042268;28;20041;-66
2023/09/07 10:03:23;;;;;;;56.47;52.90;;;26.10;61.70;;;;;;5039637;28;20057;-66
2023/09/07 10:05:49;;;;;;;36.88;34.58;;;26.20;59.90;;;;;;5052583;28;20037;-66
2023/09/07 10:08:18;;;;;;;60.03;56.00;;;26.20;59.90;;;;;;5045207;28;20069;-66
2023/09/07 10:10:47;;;;;;;48.13;44.97;;;26.30;60.80;;;;;;5045790;28;20063;-66
2023/09/07 10:13:29;;;;;;;52.10;48.87;;;26.30;60.40;;;;;;5040377;28;20037;-66
2023/09/07 10:16:07;;;;;;;56.03;52.53;;;26.40;59.70;;;;;;5039942;28;20151;-66
2023/09/07 10:18:34;;;;;;;77.10;72.40;;;26.40;60.30;;;;;;5041647;28;20470;-66
2023/09/07 10:21:02;;;;;;;53.27;49.80;;;26.50;60.90;;;;;;5047781;28;20080;-66
2023/09/07 10:23:44;;;;;;;64.73;60.67;;;26.60;61.10;;;;;;5043148;28;20056;-66
2023/09/07 10:26:17;;;;;;;55.20;51.80;;;26.70;60.60;;;;;;5027381;28;20049;-68
2023/09/07 10:28:44;;;;;;;59.50;55.77;;;26.80;58.70;;;;;;5065132;28;20053;-68
2023/09/07 10:31:17;;;;;;;70.27;65.80;;;26.90;59.10;;;;;;5034956;28;20042;-68
2023/09/07 10:33:43;;;;;;;55.00;51.57;;;27.00;59.20;;;;;;5038147;28;20029;-68
2023/09/07 10:36:19;;;;;;;47.63;44.67;;;27.10;59.40;;;;;;5043026;28;20171;-68
2023/09/07 10:38:45;;;;;;;48.43;45.20;;;27.20;59.20;;;;;;5038853;28;20103;-67
2023/09/07 10:41:11;;;;;;;57.30;53.77;;;27.30;58.30;;;;;;5046136;28;20048;-68
2023/09/07 10:43:50;;;;;;;52.27;49.07;;;27.40;56.80;;;;;;5042721;28;20049;-68
2023/09/07 10:46:22;;;;;;;53.53;50.33;;;27.40;57.60;;;;;;5043389;28;20132;-67
2023/09/07 10:48:52;;;;;;;69.57;65.23;;;27.50;57.70;;;;;;5039392;28;20780;-68
2023/09/07 10:51:19;;;;;;;55.17;51.47;;;27.60;57.50;;;;;;5039061;28;20071;-68
2023/09/07 10:53:45;;;;;;;43.33;40.73;;;27.70;57.50;;;;;;5020528;28;20048;-69
2023/09/07 10:56:11;;;;;;;51.03;47.90;;;27.80;56.40;;;;;;5038155;28;20041;-68
2023/09/07 10:58:42;;;;;;;47.90;45.07;;;27.80;56.80;;;;;;5036443;28;20049;-68
2023/09/07 11:01:09;;;;;;;77.60;72.90;;;27.90;54.50;;;;;;5039981;28;20043;-68
2023/09/07 11:03:36;;;;;;;65.30;61.40;;;27.90;56.00;;;;;;5036689;28;20485;-68
2023/09/07 11:06:20;;;;;;;72.53;67.83;;;28.00;56.80;;;;;;5024218;28;20083;-68
2023/09/07 11:08:46;;;;;;;73.57;69.23;;;28.10;55.40;;;;;;5037499;28;20041;-68
2023/09/07 11:11:13;;;;;;;70.83;66.23;;;28.20;54.30;;;;;;5041609;28;20044;-67
2023/09/07 11:13:39;;;;;;;78.30;73.63;;;28.20;53.70;;;;;;5045323;28;20149;-67
2023/09/07 11:16:08;;;;;;;72.97;68.67;;;28.30;54.60;;;;;;5027125;28;20124;-68
2023/09/07 11:18:37;;;;;;;66.37;62.30;;;28.30;55.10;;;;;;5043739;28;20049;-67
2023/09/07 11:21:03;;;;;;;68.10;64.27;;;28.40;53.90;;;;;;5038633;28;20045;-68
2023/09/07 11:23:40;;;;;;;71.80;67.60;;;28.40;54.30;;;;;;5033747;28;20056;-67
2023/09/07 11:26:07;;;;;;;83.50;78.43;;;28.50;54.40;;;;;;5044202;28;20117;-68
2023/09/07 11:28:33;;;;;;;100.60;94.43;;;28.50;54.50;;;;;;5036562;28;20111;-68
2023/09/07 11:30:59;;;;;;;129.90;121.80;;;28.60;54.40;;;;;;5043052;28;20045;-68
2023/09/07 11:33:25;;;;;;;117.27;109.97;;;28.70;53.70;;;;;;5044947;28;20045;-68
2023/09/07 11:35:54;;;;;;;99.00;92.83;;;28.70;54.30;;;;;;5033639;28;20045;-68
2023/09/07 11:38:20;;;;;;;109.87;103.47;;;28.80;53.70;;;;;;5019723;28;20045;-68
2023/09/07 11:40:46;;;;;;;123.47;116.13;;;28.90;53.10;;;;;;5045316;28;20033;-68
2023/09/07 11:43:13;;;;;;;110.73;104.10;;;29.00;52.60;;;;;;5049140;28;20041;-68
2023/09/07 11:45:40;;;;;;;126.10;118.07;;;29.10;52.80;;;;;;5041924;28;20548;-68
2023/09/07 11:48:08;;;;;;;134.80;126.53;;;29.20;53.30;;;;;;5027924;28;20109;-68
2023/09/07 11:50:35;;;;;;;71.90;67.53;;;29.20;53.30;;;;;;5050241;28;20064;-67
2023/09/07 11:53:01;;;;;;;126.10;118.20;;;29.30;52.80;;;;;;5050972;28;20040;-68
2023/09/07 11:55:27;;;;;;;110.00;103.47;;;29.40;52.80;;;;;;5026767;28;20044;-69
2023/09/07 11:57:53;;;;;;;132.83;124.90;;;29.50;52.60;;;;;;5043586;28;20098;-69
2023/09/07 12:00:19;;;;;;;136.90;128.77;;;29.50;52.40;;;;;;5045342;28;20052;-69
2023/09/07 12:02:45;;;;;;;117.37;110.03;;;29.50;52.90;;;;;;5055534;28;20036;-68
2023/09/07 12:05:14;;;;;;;100.23;94.17;;;29.60;53.20;;;;;;5040226;28;20110;-69
2023/09/07 12:07:41;;;;;;;134.70;126.47;;;29.60;52.30;;;;;;5041726;28;20075;-68
2023/09/07 12:10:10;;;;;;;130.77;122.77;;;29.70;52.50;;;;;;5044004;28;20485;-68
2023/09/07 12:12:39;;;;;;;110.73;103.97;;;29.70;52.70;;;;;;5043177;28;20053;-69
2023/09/07 12:15:05;;;;;;;96.17;90.37;;;29.80;52.50;;;;;;5044472;28;20041;-68
2023/09/07 12:17:32;;;;;;;120.40;112.93;;;29.90;51.70;;;;;;5026676;28;20687;-68
2023/09/07 12:19:58;;;;;;;102.77;96.43;;;29.90;51.50;;;;;;5043678;28;20049;-68
2023/09/07 12:22:24;;;;;;;97.70;91.60;;;29.90;51.00;;;;;;5025015;28;20052;-68
2023/09/07 12:24:50;;;;;;;74.33;69.87;;;30.00;50.80;;;;;;5015437;28;20072;-68